sensor_id;sensor_type;location;lat;lon;timestamp;pressure;altitude;pressure_sealevel;temperature;humidity
30730;BME280;17476;48.458;7.928;2023-07-16T00:00:01;99810.84;;;21.11;92.62
30730;BME280;17476;48.458;7.928;2023-07-16T00:02:29;99828.41;;;21.12;94.07
30730;BME280;17476;48.458;7.928;2023-07-16T00:04:55;99832.88;;;21.23;94.65
30730;BME280;17476;48.458;7.928;2023-07-16T00:07:21;99827.47;;;21.30;95.08
30730;BME280;17476;48.458;7.928;2023-07-16T00:09:47;99844.00;;;21.20;95.45
30730;BME280;17476;48.458;7.928;2023-07-16T00:12:12;99849.66;;;21.24;95.71
30730;BME280;17476;48.458;7.928;2023-07-16T00:14:38;99844.22;;;21.19;95.43
30730;BME280;17476;48.458;7.928;2023-07-16T00:17:04;99847.94;;;21.06;94.29
30730;BME280;17476;48.458;7.928;2023-07-16T00:19:30;99852.00;;;21.09;95.15
30730;BME280;17476;48.458;7.928;2023-07-16T00:21:56;99850.69;;;21.23;94.52
30730;BME280;17476;48.458;7.928;2023-07-16T00:24:22;99881.38;;;21.14;92.26
30730;BME280;17476;48.458;7.928;2023-07-16T00:26:48;99894.00;;;21.07;90.72
30730;BME280;17476;48.458;7.928;2023-07-16T00:29:13;99888.91;;;20.93;89.85
30730;BME280;17476;48.458;7.928;2023-07-16T00:31:39;99889.59;;;20.89;89.87
30730;BME280;17476;48.458;7.928;2023-07-16T00:34:17;99898.03;;;20.86;89.49
30730;BME280;17476;48.458;7.928;2023-07-16T00:36:46;99914.09;;;20.79;89.40
30730;BME280;17476;48.458;7.928;2023-07-16T00:39:15;99896.31;;;20.68;82.59
30730;BME280;17476;48.458;7.928;2023-07-16T00:41:40;99892.25;;;20.65;81.24
30730;BME280;17476;48.458;7.928;2023-07-16T00:44:15;99864.06;;;20.64;83.72
30730;BME280;17476;48.458;7.928;2023-07-16T00:46:42;99851.00;;;20.63;83.55
30730;BME280;17476;48.458;7.928;2023-07-16T00:49:08;99848.94;;;20.53;85.23
30730;BME280;17476;48.458;7.928;2023-07-16T00:51:34;99872.84;;;20.53;84.25
30730;BME280;17476;48.458;7.928;2023-07-16T00:54:00;99878.94;;;20.42;83.42
30730;BME280;17476;48.458;7.928;2023-07-16T00:56:27;99877.75;;;20.38;85.27
30730;BME280;17476;48.458;7.928;2023-07-16T00:58:52;99877.19;;;20.36;84.22
30730;BME280;17476;48.458;7.928;2023-07-16T01:01:18;99875.44;;;20.30;84.03
30730;BME280;17476;48.458;7.928;2023-07-16T01:03:44;99867.03;;;20.33;85.38
30730;BME280;17476;48.458;7.928;2023-07-16T01:06:35;99875.31;;;20.25;82.02
30730;BME280;17476;48.458;7.928;2023-07-16T01:09:17;99880.28;;;20.21;83.65
30730;BME280;17476;48.458;7.928;2023-07-16T01:11:44;99882.56;;;20.17;83.42
30730;BME280;17476;48.458;7.928;2023-07-16T01:14:13;99881.28;;;20.08;85.47
30730;BME280;17476;48.458;7.928;2023-07-16T01:16:42;99896.75;;;20.00;86.80
30730;BME280;17476;48.458;7.928;2023-07-16T01:19:09;99905.66;;;20.05;86.68
30730;BME280;17476;48.458;7.928;2023-07-16T01:21:56;99912.47;;;20.13;86.43
30730;BME280;17476;48.458;7.928;2023-07-16T01:30:38;99919.06;;;19.80;87.81
30730;BME280;17476;48.458;7.928;2023-07-16T01:33:05;99917.78;;;19.83;88.40
30730;BME280;17476;48.458;7.928;2023-07-16T01:35:33;99922.78;;;19.91;89.99
30730;BME280;17476;48.458;7.928;2023-07-16T01:38:00;99924.44;;;19.74;93.75
30730;BME280;17476;48.458;7.928;2023-07-16T01:40:26;99926.94;;;19.69;94.92
30730;BME280;17476;48.458;7.928;2023-07-16T01:42:52;99922.81;;;19.73;97.15
30730;BME280;17476;48.458;7.928;2023-07-16T01:45:18;99905.56;;;19.63;99.34
30730;BME280;17476;48.458;7.928;2023-07-16T01:48:04;99912.88;;;19.68;99.13
30730;BME280;17476;48.458;7.928;2023-07-16T01:50:34;99917.00;;;19.64;99.62
30730;BME280;17476;48.458;7.928;2023-07-16T01:53:00;99920.53;;;19.76;99.48
30730;BME280;17476;48.458;7.928;2023-07-16T01:55:26;99917.38;;;19.68;99.88
30730;BME280;17476;48.458;7.928;2023-07-16T01:57:51;99924.16;;;19.63;99.85
30730;BME280;17476;48.458;7.928;2023-07-16T02:00:17;99933.84;;;19.58;98.69
30730;BME280;17476;48.458;7.928;2023-07-16T02:02:43;99938.97;;;19.53;99.26
30730;BME280;17476;48.458;7.928;2023-07-16T02:05:09;99941.22;;;19.49;99.41
30730;BME280;17476;48.458;7.928;2023-07-16T02:07:35;99930.94;;;19.59;99.05
30730;BME280;17476;48.458;7.928;2023-07-16T02:10:00;99938.72;;;19.54;99.25
30730;BME280;17476;48.458;7.928;2023-07-16T02:12:26;99932.63;;;19.54;98.94
30730;BME280;17476;48.458;7.928;2023-07-16T02:14:52;99933.19;;;19.56;98.16
30730;BME280;17476;48.458;7.928;2023-07-16T02:17:18;99935.84;;;19.56;98.65
30730;BME280;17476;48.458;7.928;2023-07-16T02:19:43;99920.63;;;19.51;98.05
30730;BME280;17476;48.458;7.928;2023-07-16T02:22:09;99927.53;;;19.52;98.62
30730;BME280;17476;48.458;7.928;2023-07-16T02:24:35;99933.28;;;19.49;98.21
30730;BME280;17476;48.458;7.928;2023-07-16T02:27:01;99929.88;;;19.42;97.90
30730;BME280;17476;48.458;7.928;2023-07-16T02:29:27;99937.19;;;19.47;98.29
30730;BME280;17476;48.458;7.928;2023-07-16T02:31:52;99941.69;;;19.46;96.61
30730;BME280;17476;48.458;7.928;2023-07-16T02:34:18;99936.22;;;19.41;97.07
30730;BME280;17476;48.458;7.928;2023-07-16T02:36:44;99938.44;;;19.44;96.80
30730;BME280;17476;48.458;7.928;2023-07-16T02:39:10;99954.63;;;19.36;96.67
30730;BME280;17476;48.458;7.928;2023-07-16T02:41:36;99944.03;;;19.36;95.39
30730;BME280;17476;48.458;7.928;2023-07-16T02:44:05;99946.56;;;19.31;96.00
30730;BME280;17476;48.458;7.928;2023-07-16T02:46:31;99955.00;;;19.21;95.38
30730;BME280;17476;48.458;7.928;2023-07-16T02:48:57;99953.06;;;19.10;94.25
30730;BME280;17476;48.458;7.928;2023-07-16T02:51:23;99958.66;;;19.02;94.24
30730;BME280;17476;48.458;7.928;2023-07-16T02:53:48;99948.56;;;18.92;94.00
30730;BME280;17476;48.458;7.928;2023-07-16T02:56:14;99952.38;;;18.96;93.79
30730;BME280;17476;48.458;7.928;2023-07-16T02:58:40;99956.81;;;19.02;93.62
30730;BME280;17476;48.458;7.928;2023-07-16T03:01:06;99956.59;;;19.04;94.12
30730;BME280;17476;48.458;7.928;2023-07-16T03:03:32;99955.56;;;19.05;93.25
30730;BME280;17476;48.458;7.928;2023-07-16T03:05:58;99952.13;;;19.04;93.56
30730;BME280;17476;48.458;7.928;2023-07-16T03:08:23;99964.34;;;19.05;93.69
30730;BME280;17476;48.458;7.928;2023-07-16T03:10:52;99960.00;;;19.11;92.62
30730;BME280;17476;48.458;7.928;2023-07-16T03:13:17;99960.81;;;19.12;92.63
30730;BME280;17476;48.458;7.928;2023-07-16T03:15:43;99967.16;;;19.11;92.94
30730;BME280;17476;48.458;7.928;2023-07-16T03:18:09;99969.13;;;19.15;92.65
30730;BME280;17476;48.458;7.928;2023-07-16T03:20:35;99970.56;;;19.18;93.34
30730;BME280;17476;48.458;7.928;2023-07-16T03:23:00;99962.72;;;19.23;92.86
30730;BME280;17476;48.458;7.928;2023-07-16T03:25:26;99965.38;;;19.23;92.98
30730;BME280;17476;48.458;7.928;2023-07-16T03:27:52;99961.28;;;19.27;93.44
30730;BME280;17476;48.458;7.928;2023-07-16T03:30:18;99977.34;;;19.32;93.77
30730;BME280;17476;48.458;7.928;2023-07-16T03:32:44;99966.50;;;19.33;92.91
30730;BME280;17476;48.458;7.928;2023-07-16T03:35:09;99959.94;;;19.36;93.39
30730;BME280;17476;48.458;7.928;2023-07-16T03:37:35;99963.63;;;19.35;93.21
30730;BME280;17476;48.458;7.928;2023-07-16T03:42:39;99955.81;;;19.40;92.80
30730;BME280;17476;48.458;7.928;2023-07-16T03:45:06;99973.34;;;19.41;92.52
30730;BME280;17476;48.458;7.928;2023-07-16T03:47:32;99977.41;;;19.44;92.47
30730;BME280;17476;48.458;7.928;2023-07-16T03:49:58;99981.47;;;19.46;92.81
30730;BME280;17476;48.458;7.928;2023-07-16T03:52:24;99985.28;;;19.50;92.09
30730;BME280;17476;48.458;7.928;2023-07-16T03:54:50;99978.75;;;19.53;91.93
30730;BME280;17476;48.458;7.928;2023-07-16T03:57:16;99983.09;;;19.47;91.29
30730;BME280;17476;48.458;7.928;2023-07-16T03:59:42;99998.25;;;19.40;91.51
30730;BME280;17476;48.458;7.928;2023-07-16T04:29:15;100047.84;;;20.01;87.98
30730;BME280;17476;48.458;7.928;2023-07-16T04:31:41;100053.28;;;20.06;86.96
30730;BME280;17476;48.458;7.928;2023-07-16T04:34:07;100044.13;;;20.02;86.68
30730;BME280;17476;48.458;7.928;2023-07-16T04:36:32;100045.59;;;19.98;86.93
30730;BME280;17476;48.458;7.928;2023-07-16T04:38:58;100041.50;;;20.02;87.13
30730;BME280;17476;48.458;7.928;2023-07-16T04:41:24;100054.16;;;20.18;86.85
30730;BME280;17476;48.458;7.928;2023-07-16T04:43:50;100050.50;;;20.31;85.82
30730;BME280;17476;48.458;7.928;2023-07-16T04:46:16;100055.47;;;20.28;85.20
30730;BME280;17476;48.458;7.928;2023-07-16T04:48:42;100053.13;;;20.20;84.48
30730;BME280;17476;48.458;7.928;2023-07-16T04:51:08;100054.91;;;20.26;85.27
30730;BME280;17476;48.458;7.928;2023-07-16T04:53:33;100058.56;;;20.25;84.53
30730;BME280;17476;48.458;7.928;2023-07-16T04:55:59;100052.97;;;20.33;85.34
30730;BME280;17476;48.458;7.928;2023-07-16T04:58:25;100051.78;;;20.29;84.43
30730;BME280;17476;48.458;7.928;2023-07-16T05:00:51;100048.31;;;20.28;84.95
30730;BME280;17476;48.458;7.928;2023-07-16T05:03:16;100053.13;;;20.20;84.94
30730;BME280;17476;48.458;7.928;2023-07-16T05:05:42;100054.13;;;20.37;85.55
30730;BME280;17476;48.458;7.928;2023-07-16T05:08:08;100056.78;;;20.55;84.73
30730;BME280;17476;48.458;7.928;2023-07-16T05:10:34;100056.59;;;20.68;84.30
30730;BME280;17476;48.458;7.928;2023-07-16T05:12:59;100063.78;;;20.80;83.63
30730;BME280;17476;48.458;7.928;2023-07-16T05:15:25;100080.75;;;20.79;82.50
30730;BME280;17476;48.458;7.928;2023-07-16T05:17:51;100073.50;;;20.86;83.34
30730;BME280;17476;48.458;7.928;2023-07-16T05:20:17;100071.00;;;21.03;83.20
30730;BME280;17476;48.458;7.928;2023-07-16T05:22:43;100059.34;;;21.15;81.94
30730;BME280;17476;48.458;7.928;2023-07-16T05:25:20;100062.63;;;21.29;80.09
30730;BME280;17476;48.458;7.928;2023-07-16T05:27:46;100059.72;;;21.42;78.53
30730;BME280;17476;48.458;7.928;2023-07-16T05:30:12;100067.59;;;21.49;77.16
30730;BME280;17476;48.458;7.928;2023-07-16T05:32:38;100066.78;;;21.37;77.45
30730;BME280;17476;48.458;7.928;2023-07-16T05:35:05;100072.31;;;21.47;77.89
30730;BME280;17476;48.458;7.928;2023-07-16T05:37:31;100060.50;;;21.66;77.71
30730;BME280;17476;48.458;7.928;2023-07-16T05:39:56;100058.09;;;21.76;77.11
30730;BME280;17476;48.458;7.928;2023-07-16T05:42:22;100054.97;;;21.68;75.97
30730;BME280;17476;48.458;7.928;2023-07-16T05:44:48;100053.56;;;21.65;75.48
30730;BME280;17476;48.458;7.928;2023-07-16T05:47:14;100054.97;;;21.56;75.57
30730;BME280;17476;48.458;7.928;2023-07-16T05:49:40;100068.84;;;21.46;75.79
30730;BME280;17476;48.458;7.928;2023-07-16T05:52:06;100059.47;;;21.20;76.61
30730;BME280;17476;48.458;7.928;2023-07-16T05:54:32;100057.00;;;21.19;76.82
30730;BME280;17476;48.458;7.928;2023-07-16T05:56:57;100061.66;;;21.23;76.83
30730;BME280;17476;48.458;7.928;2023-07-16T05:59:23;100068.16;;;21.27;77.92
30730;BME280;17476;48.458;7.928;2023-07-16T06:01:49;100063.13;;;21.19;79.32
30730;BME280;17476;48.458;7.928;2023-07-16T06:04:15;100065.16;;;21.36;79.57
30730;BME280;17476;48.458;7.928;2023-07-16T06:06:41;100066.06;;;21.65;77.30
30730;BME280;17476;48.458;7.928;2023-07-16T06:09:06;100068.13;;;21.86;76.94
30730;BME280;17476;48.458;7.928;2023-07-16T06:11:32;100062.44;;;21.94;75.64
30730;BME280;17476;48.458;7.928;2023-07-16T06:13:59;100074.84;;;21.89;74.80
30730;BME280;17476;48.458;7.928;2023-07-16T06:16:25;100082.38;;;21.80;75.83
30730;BME280;17476;48.458;7.928;2023-07-16T06:18:51;100089.59;;;21.56;75.12
30730;BME280;17476;48.458;7.928;2023-07-16T06:21:16;100091.09;;;21.64;76.18
30730;BME280;17476;48.458;7.928;2023-07-16T06:23:43;100085.38;;;21.84;74.93
30730;BME280;17476;48.458;7.928;2023-07-16T06:26:08;100078.69;;;21.69;75.89
30730;BME280;17476;48.458;7.928;2023-07-16T06:28:34;100079.97;;;21.43;73.85
30730;BME280;17476;48.458;7.928;2023-07-16T06:31:00;100069.22;;;21.38;74.48
30730;BME280;17476;48.458;7.928;2023-07-16T06:33:26;100072.19;;;21.77;74.62
30730;BME280;17476;48.458;7.928;2023-07-16T06:35:53;100069.03;;;22.03;71.99
30730;BME280;17476;48.458;7.928;2023-07-16T06:38:19;100080.88;;;21.72;73.38
30730;BME280;17476;48.458;7.928;2023-07-16T06:40:49;100070.72;;;21.69;74.67
30730;BME280;17476;48.458;7.928;2023-07-16T06:43:16;100079.50;;;21.82;75.15
30730;BME280;17476;48.458;7.928;2023-07-16T06:45:43;100075.75;;;21.94;73.15
30730;BME280;17476;48.458;7.928;2023-07-16T06:48:08;100087.94;;;21.67;73.72
30730;BME280;17476;48.458;7.928;2023-07-16T06:50:34;100091.09;;;21.64;74.78
30730;BME280;17476;48.458;7.928;2023-07-16T06:53:00;100097.69;;;21.61;75.45
30730;BME280;17476;48.458;7.928;2023-07-16T06:55:26;100102.19;;;21.72;73.63
30730;BME280;17476;48.458;7.928;2023-07-16T06:57:52;100099.53;;;21.49;73.98
30730;BME280;17476;48.458;7.928;2023-07-16T07:00:18;100107.97;;;21.34;74.98
30730;BME280;17476;48.458;7.928;2023-07-16T07:02:44;100108.94;;;21.10;76.04
30730;BME280;17476;48.458;7.928;2023-07-16T07:05:10;100109.75;;;21.10;76.60
30730;BME280;17476;48.458;7.928;2023-07-16T07:07:36;100106.38;;;21.03;77.33
30730;BME280;17476;48.458;7.928;2023-07-16T07:10:01;100110.44;;;21.17;77.39
30730;BME280;17476;48.458;7.928;2023-07-16T07:12:27;100108.88;;;21.28;76.67
30730;BME280;17476;48.458;7.928;2023-07-16T07:14:53;100113.41;;;21.39;76.45
30730;BME280;17476;48.458;7.928;2023-07-16T07:17:19;100112.97;;;21.54;77.50
30730;BME280;17476;48.458;7.928;2023-07-16T07:19:44;100111.09;;;21.78;75.22
30730;BME280;17476;48.458;7.928;2023-07-16T07:22:10;100114.88;;;22.05;74.68
30730;BME280;17476;48.458;7.928;2023-07-16T07:24:36;100113.50;;;22.15;74.17
30730;BME280;17476;48.458;7.928;2023-07-16T07:27:02;100105.59;;;22.08;74.74
30730;BME280;17476;48.458;7.928;2023-07-16T07:29:28;100097.78;;;21.66;74.64
30730;BME280;17476;48.458;7.928;2023-07-16T07:31:54;100093.50;;;21.53;75.14
30730;BME280;17476;48.458;7.928;2023-07-16T07:34:19;100099.53;;;21.49;75.53
30730;BME280;17476;48.458;7.928;2023-07-16T07:36:45;100110.50;;;21.52;76.08
30730;BME280;17476;48.458;7.928;2023-07-16T07:39:11;100110.06;;;21.56;75.91
30730;BME280;17476;48.458;7.928;2023-07-16T07:41:39;100112.94;;;21.66;74.57
30730;BME280;17476;48.458;7.928;2023-07-16T07:44:04;100092.28;;;22.08;73.48
30730;BME280;17476;48.458;7.928;2023-07-16T07:46:30;100089.22;;;22.40;72.08
30730;BME280;17476;48.458;7.928;2023-07-16T07:48:56;100081.59;;;22.88;69.52
30730;BME280;17476;48.458;7.928;2023-07-16T07:51:22;100083.72;;;22.75;68.91
30730;BME280;17476;48.458;7.928;2023-07-16T07:53:48;100077.16;;;22.94;70.08
30730;BME280;17476;48.458;7.928;2023-07-16T07:56:14;100083.63;;;22.98;69.03
30730;BME280;17476;48.458;7.928;2023-07-16T07:58:40;100084.16;;;22.83;68.94
30730;BME280;17476;48.458;7.928;2023-07-16T08:01:07;100091.25;;;22.78;68.88
30730;BME280;17476;48.458;7.928;2023-07-16T08:03:34;100091.00;;;22.79;68.33
30730;BME280;17476;48.458;7.928;2023-07-16T08:06:00;100107.13;;;22.84;67.94
30730;BME280;17476;48.458;7.928;2023-07-16T08:08:25;100101.84;;;23.18;66.78
30730;BME280;17476;48.458;7.928;2023-07-16T08:10:52;100099.00;;;23.58;65.81
30730;BME280;17476;48.458;7.928;2023-07-16T08:13:18;100102.06;;;23.16;66.35
30730;BME280;17476;48.458;7.928;2023-07-16T08:15:43;100114.53;;;23.28;66.62
30730;BME280;17476;48.458;7.928;2023-07-16T08:18:09;100106.06;;;23.31;65.42
30730;BME280;17476;48.458;7.928;2023-07-16T08:20:38;100096.75;;;23.89;63.37
30730;BME280;17476;48.458;7.928;2023-07-16T08:23:03;100095.66;;;24.29;61.73
30730;BME280;17476;48.458;7.928;2023-07-16T08:25:29;100099.94;;;24.30;62.31
30730;BME280;17476;48.458;7.928;2023-07-16T08:27:55;100098.69;;;24.59;61.76
30730;BME280;17476;48.458;7.928;2023-07-16T08:30:21;100097.44;;;24.23;58.59
30730;BME280;17476;48.458;7.928;2023-07-16T08:32:47;100098.75;;;24.20;60.24
30730;BME280;17476;48.458;7.928;2023-07-16T08:35:12;100093.03;;;23.90;60.36
30730;BME280;17476;48.458;7.928;2023-07-16T08:37:45;100094.09;;;24.11;60.30
30730;BME280;17476;48.458;7.928;2023-07-16T08:40:14;100092.22;;;24.55;59.83
30730;BME280;17476;48.458;7.928;2023-07-16T08:42:41;100100.91;;;24.99;58.36
30730;BME280;17476;48.458;7.928;2023-07-16T08:45:13;100100.66;;;25.28;58.04
30730;BME280;17476;48.458;7.928;2023-07-16T08:47:40;100088.56;;;25.63;56.39
30730;BME280;17476;48.458;7.928;2023-07-16T08:50:06;100089.53;;;25.46;58.68
30730;BME280;17476;48.458;7.928;2023-07-16T08:52:32;100100.78;;;25.43;56.78
30730;BME280;17476;48.458;7.928;2023-07-16T08:54:58;100094.34;;;25.86;53.46
30730;BME280;17476;48.458;7.928;2023-07-16T08:57:23;100089.38;;;26.10;53.57
30730;BME280;17476;48.458;7.928;2023-07-16T08:59:50;100088.19;;;26.49;52.71
30730;BME280;17476;48.458;7.928;2023-07-16T09:02:20;100080.47;;;27.03;51.84
30730;BME280;17476;48.458;7.928;2023-07-16T09:04:47;100083.66;;;26.80;49.51
30730;BME280;17476;48.458;7.928;2023-07-16T09:07:14;100089.41;;;26.21;51.63
30730;BME280;17476;48.458;7.928;2023-07-16T09:09:40;100088.03;;;26.08;53.43
30730;BME280;17476;48.458;7.928;2023-07-16T09:12:06;100092.56;;;26.02;51.52
30730;BME280;17476;48.458;7.928;2023-07-16T09:14:32;100093.03;;;25.94;51.07
30730;BME280;17476;48.458;7.928;2023-07-16T09:16:58;100088.84;;;25.66;54.21
30730;BME280;17476;48.458;7.928;2023-07-16T09:19:35;100097.50;;;25.36;52.04
30730;BME280;17476;48.458;7.928;2023-07-16T09:22:01;100099.81;;;25.22;52.37
30730;BME280;17476;48.458;7.928;2023-07-16T09:24:28;100087.25;;;25.23;52.94
30730;BME280;17476;48.458;7.928;2023-07-16T09:26:55;100097.03;;;25.07;55.19
30730;BME280;17476;48.458;7.928;2023-07-16T09:29:22;100102.28;;;25.29;53.32
30730;BME280;17476;48.458;7.928;2023-07-16T09:32:01;100099.78;;;25.17;53.26
30730;BME280;17476;48.458;7.928;2023-07-16T09:34:33;100101.34;;;25.50;53.80
30730;BME280;17476;48.458;7.928;2023-07-16T09:37:00;100085.84;;;25.95;52.89
30730;BME280;17476;48.458;7.928;2023-07-16T09:39:27;100088.81;;;26.03;53.00
30730;BME280;17476;48.458;7.928;2023-07-16T09:41:56;100103.78;;;25.99;51.65
30730;BME280;17476;48.458;7.928;2023-07-16T09:44:22;100097.78;;;25.77;51.25
30730;BME280;17476;48.458;7.928;2023-07-16T09:46:48;100088.63;;;25.68;49.94
30730;BME280;17476;48.458;7.928;2023-07-16T09:49:15;100090.03;;;25.75;50.21
30730;BME280;17476;48.458;7.928;2023-07-16T09:51:43;100095.50;;;26.06;51.00
30730;BME280;17476;48.458;7.928;2023-07-16T09:54:15;100099.53;;;26.03;51.88
30730;BME280;17476;48.458;7.928;2023-07-16T09:56:48;100088.88;;;26.24;53.17
30730;BME280;17476;48.458;7.928;2023-07-16T09:59:17;100089.78;;;26.55;52.11
30730;BME280;17476;48.458;7.928;2023-07-16T10:02:05;100092.22;;;26.61;48.46
30730;BME280;17476;48.458;7.928;2023-07-16T10:04:39;100105.28;;;26.37;50.08
30730;BME280;17476;48.458;7.928;2023-07-16T10:07:23;100109.22;;;26.09;48.11
30730;BME280;17476;48.458;7.928;2023-07-16T10:09:57;100108.56;;;25.87;49.51
30730;BME280;17476;48.458;7.928;2023-07-16T10:12:25;100114.25;;;25.58;48.98
30730;BME280;17476;48.458;7.928;2023-07-16T10:14:55;100104.28;;;25.49;50.04
30730;BME280;17476;48.458;7.928;2023-07-16T10:17:26;100099.78;;;25.59;50.25
30730;BME280;17476;48.458;7.928;2023-07-16T10:19:57;100101.44;;;25.61;50.02
30730;BME280;17476;48.458;7.928;2023-07-16T10:22:32;100090.56;;;25.40;49.56
30730;BME280;17476;48.458;7.928;2023-07-16T10:24:59;100092.44;;;25.77;50.99
30730;BME280;17476;48.458;7.928;2023-07-16T10:27:33;100088.25;;;25.96;50.32
30730;BME280;17476;48.458;7.928;2023-07-16T10:30:04;100083.78;;;26.27;50.58
30730;BME280;17476;48.458;7.928;2023-07-16T10:32:32;100080.94;;;26.44;50.63
30730;BME280;17476;48.458;7.928;2023-07-16T10:34:58;100079.91;;;26.91;48.35
30730;BME280;17476;48.458;7.928;2023-07-16T10:37:25;100079.16;;;27.11;48.20
30730;BME280;17476;48.458;7.928;2023-07-16T10:39:54;100083.16;;;27.13;45.30
30730;BME280;17476;48.458;7.928;2023-07-16T10:42:22;100086.06;;;27.53;45.60
30730;BME280;17476;48.458;7.928;2023-07-16T10:44:53;100084.19;;;27.58;44.91
30730;BME280;17476;48.458;7.928;2023-07-16T10:47:33;100087.44;;;27.35;46.06
30730;BME280;17476;48.458;7.928;2023-07-16T10:50:03;100093.66;;;27.10;48.26
30730;BME280;17476;48.458;7.928;2023-07-16T10:52:29;100093.25;;;26.45;47.30
30730;BME280;17476;48.458;7.928;2023-07-16T10:54:55;100085.50;;;26.49;46.46
30730;BME280;17476;48.458;7.928;2023-07-16T10:57:21;100085.78;;;26.67;47.86
30730;BME280;17476;48.458;7.928;2023-07-16T10:59:48;100093.88;;;26.78;48.14
30730;BME280;17476;48.458;7.928;2023-07-16T11:02:16;100082.06;;;26.99;45.62
30730;BME280;17476;48.458;7.928;2023-07-16T11:04:44;100075.09;;;27.13;45.47
30730;BME280;17476;48.458;7.928;2023-07-16T11:07:12;100076.72;;;27.14;44.34
30730;BME280;17476;48.458;7.928;2023-07-16T11:12:17;100076.41;;;27.01;46.72
30730;BME280;17476;48.458;7.928;2023-07-16T11:14:45;100078.84;;;26.97;47.44
30730;BME280;17476;48.458;7.928;2023-07-16T11:17:12;100087.16;;;26.90;50.51
30730;BME280;17476;48.458;7.928;2023-07-16T11:19:40;100088.50;;;26.78;47.87
30730;BME280;17476;48.458;7.928;2023-07-16T11:22:07;100086.56;;;26.53;47.51
30730;BME280;17476;48.458;7.928;2023-07-16T11:24:44;100081.34;;;26.16;48.76
30730;BME280;17476;48.458;7.928;2023-07-16T11:27:18;100082.56;;;26.50;50.51
30730;BME280;17476;48.458;7.928;2023-07-16T11:29:49;100089.56;;;26.77;50.98
30730;BME280;17476;48.458;7.928;2023-07-16T11:32:36;100073.47;;;26.92;47.92
30730;BME280;17476;48.458;7.928;2023-07-16T11:35:04;100072.91;;;26.95;48.40
30730;BME280;17476;48.458;7.928;2023-07-16T11:37:32;100073.47;;;27.02;48.06
30730;BME280;17476;48.458;7.928;2023-07-16T11:40:07;100072.41;;;27.13;48.25
30730;BME280;17476;48.458;7.928;2023-07-16T11:42:39;100070.78;;;26.77;47.24
30730;BME280;17476;48.458;7.928;2023-07-16T11:45:26;100075.06;;;26.67;46.00
30730;BME280;17476;48.458;7.928;2023-07-16T11:47:52;100064.63;;;27.07;46.45
30730;BME280;17476;48.458;7.928;2023-07-16T11:50:18;100069.75;;;27.13;46.25
30730;BME280;17476;48.458;7.928;2023-07-16T11:53:00;100067.34;;;27.17;47.84
30730;BME280;17476;48.458;7.928;2023-07-16T11:55:26;100064.88;;;27.36;47.56
30730;BME280;17476;48.458;7.928;2023-07-16T11:57:52;100047.19;;;27.19;43.22
30730;BME280;17476;48.458;7.928;2023-07-16T12:00:18;100047.97;;;27.20;44.23
30730;BME280;17476;48.458;7.928;2023-07-16T12:02:45;100053.34;;;27.20;43.92
30730;BME280;17476;48.458;7.928;2023-07-16T12:05:18;100054.94;;;26.75;45.35
30730;BME280;17476;48.458;7.928;2023-07-16T12:07:44;100048.50;;;26.86;45.84
30730;BME280;17476;48.458;7.928;2023-07-16T12:10:10;100049.28;;;26.61;46.55
30730;BME280;17476;48.458;7.928;2023-07-16T12:12:35;100050.09;;;26.67;44.40
30730;BME280;17476;48.458;7.928;2023-07-16T12:15:07;100043.97;;;27.07;45.02
30730;BME280;17476;48.458;7.928;2023-07-16T12:17:33;100055.22;;;27.25;44.25
30730;BME280;17476;48.458;7.928;2023-07-16T12:20:00;100045.47;;;27.74;45.11
30730;BME280;17476;48.458;7.928;2023-07-16T12:22:26;100041.09;;;27.84;42.96
30730;BME280;17476;48.458;7.928;2023-07-16T12:24:52;100038.72;;;27.67;41.84
30730;BME280;17476;48.458;7.928;2023-07-16T12:27:18;100041.00;;;26.93;43.01
30730;BME280;17476;48.458;7.928;2023-07-16T12:29:45;100034.81;;;27.13;42.77
30730;BME280;17476;48.458;7.928;2023-07-16T12:32:12;100032.06;;;27.49;43.34
30730;BME280;17476;48.458;7.928;2023-07-16T12:34:38;100034.44;;;27.61;43.66
30730;BME280;17476;48.458;7.928;2023-07-16T12:37:04;100033.09;;;27.73;41.88
30730;BME280;17476;48.458;7.928;2023-07-16T12:39:30;100021.97;;;28.00;40.85
30730;BME280;17476;48.458;7.928;2023-07-16T12:41:56;100019.16;;;28.21;39.76
30730;BME280;17476;48.458;7.928;2023-07-16T12:44:22;100015.84;;;28.73;39.30
30730;BME280;17476;48.458;7.928;2023-07-16T12:46:48;100014.88;;;29.22;38.36
30730;BME280;17476;48.458;7.928;2023-07-16T12:49:13;100011.72;;;29.39;39.57
30730;BME280;17476;48.458;7.928;2023-07-16T12:51:42;100008.31;;;30.00;39.73
30730;BME280;17476;48.458;7.928;2023-07-16T12:54:08;100010.66;;;29.88;37.87
30730;BME280;17476;48.458;7.928;2023-07-16T12:56:40;100018.81;;;29.83;36.42
30730;BME280;17476;48.458;7.928;2023-07-16T12:59:05;100015.66;;;29.52;37.04
30730;BME280;17476;48.458;7.928;2023-07-16T13:01:31;100019.72;;;29.49;38.33
30730;BME280;17476;48.458;7.928;2023-07-16T13:03:57;100017.47;;;29.61;39.32
30730;BME280;17476;48.458;7.928;2023-07-16T13:06:23;100012.28;;;29.41;38.54
30730;BME280;17476;48.458;7.928;2023-07-16T13:08:48;100002.97;;;29.28;37.72
30730;BME280;17476;48.458;7.928;2023-07-16T13:11:24;100009.13;;;29.05;38.78
30730;BME280;17476;48.458;7.928;2023-07-16T13:13:50;100003.69;;;29.10;39.12
30730;BME280;17476;48.458;7.928;2023-07-16T13:16:15;100003.63;;;28.86;36.91
30730;BME280;17476;48.458;7.928;2023-07-16T13:18:41;100002.66;;;28.72;39.74
30730;BME280;17476;48.458;7.928;2023-07-16T13:21:07;100005.03;;;28.78;37.84
30730;BME280;17476;48.458;7.928;2023-07-16T13:23:33;100001.38;;;28.98;39.92
30730;BME280;17476;48.458;7.928;2023-07-16T13:25:58;100001.53;;;28.78;38.47
30730;BME280;17476;48.458;7.928;2023-07-16T13:28:24;100002.41;;;28.29;39.24
30730;BME280;17476;48.458;7.928;2023-07-16T13:31:24;100004.63;;;28.66;38.25